sensor_id;sensor_type;location;lat;lon;timestamp;P1;durP1;ratioP1;P2;durP2;ratioP2
22363;SDS011;11349;53.412;-1.328;2023-03-13T00:00:50;1.63;;;0.70;;
22363;SDS011;11349;53.412;-1.328;2023-03-13T00:03:17;1.15;;;0.60;;
22363;SDS011;11349;53.412;-1.328;2023-03-13T00:05:43;1.58;;;0.70;;
22363;SDS011;11349;53.412;-1.328;2023-03-13T00:08:08;2.03;;;0.63;;
22363;SDS011;11349;53.412;-1.328;2023-03-13T00:10:37;1.90;;;0.70;;
22363;SDS011;11349;53.412;-1.328;2023-03-13T00:13:04;1.63;;;0.77;;
22363;SDS011;11349;53.412;-1.328;2023-03-13T00:15:30;1.02;;;0.60;;
22363;SDS011;11349;53.412;-1.328;2023-03-13T00:17:56;1.35;;;0.70;;
22363;SDS011;11349;53.412;-1.328;2023-03-13T00:20:22;2.25;;;0.80;;
22363;SDS011;11349;53.412;-1.328;2023-03-13T00:22:47;1.48;;;0.70;;
22363;SDS011;11349;53.412;-1.328;2023-03-13T00:25:13;1.40;;;0.75;;
22363;SDS011;11349;53.412;-1.328;2023-03-13T00:27:39;0.98;;;0.60;;
22363;SDS011;11349;53.412;-1.328;2023-03-13T00:30:04;0.65;;;0.60;;
22363;SDS011;11349;53.412;-1.328;2023-03-13T00:32:31;0.93;;;0.50;;
22363;SDS011;11349;53.412;-1.328;2023-03-13T00:34:57;1.10;;;0.55;;
22363;SDS011;11349;53.412;-1.328;2023-03-13T00:37:22;0.95;;;0.50;;
22363;SDS011;11349;53.412;-1.328;2023-03-13T00:39:48;1.48;;;0.65;;
22363;SDS011;11349;53.412;-1.328;2023-03-13T00:42:14;0.65;;;0.40;;
22363;SDS011;11349;53.412;-1.328;2023-03-13T00:44:39;1.00;;;0.55;;
22363;SDS011;11349;53.412;-1.328;2023-03-13T00:47:05;1.42;;;0.55;;
22363;SDS011;11349;53.412;-1.328;2023-03-13T00:49:31;1.02;;;0.50;;
22363;SDS011;11349;53.412;-1.328;2023-03-13T00:51:57;1.33;;;0.63;;
22363;SDS011;11349;53.412;-1.328;2023-03-13T00:54:23;1.35;;;0.57;;
22363;SDS011;11349;53.412;-1.328;2023-03-13T00:56:49;0.77;;;0.45;;
22363;SDS011;11349;53.412;-1.328;2023-03-13T00:59:15;0.95;;;0.50;;
22363;SDS011;11349;53.412;-1.328;2023-03-13T01:01:41;0.55;;;0.50;;
22363;SDS011;11349;53.412;-1.328;2023-03-13T01:04:07;0.63;;;0.40;;
22363;SDS011;11349;53.412;-1.328;2023-03-13T01:06:35;0.98;;;0.50;;
22363;SDS011;11349;53.412;-1.328;2023-03-13T01:09:05;0.80;;;0.50;;
22363;SDS011;11349;53.412;-1.328;2023-03-13T01:11:32;1.25;;;0.40;;
22363;SDS011;11349;53.412;-1.328;2023-03-13T01:14:01;0.43;;;0.30;;
22363;SDS011;11349;53.412;-1.328;2023-03-13T01:16:29;0.80;;;0.38;;
22363;SDS011;11349;53.412;-1.328;2023-03-13T01:18:58;1.15;;;0.50;;
22363;SDS011;11349;53.412;-1.328;2023-03-13T01:21:26;1.10;;;0.50;;
22363;SDS011;11349;53.412;-1.328;2023-03-13T01:23:52;0.65;;;0.38;;
22363;SDS011;11349;53.412;-1.328;2023-03-13T01:26:18;0.57;;;0.28;;
22363;SDS011;11349;53.412;-1.328;2023-03-13T01:28:45;0.80;;;0.30;;
22363;SDS011;11349;53.412;-1.328;2023-03-13T01:33:50;1.55;;;0.40;;
22363;SDS011;11349;53.412;-1.328;2023-03-13T01:36:19;0.95;;;0.35;;
22363;SDS011;11349;53.412;-1.328;2023-03-13T01:38:48;0.80;;;0.30;;
22363;SDS011;11349;53.412;-1.328;2023-03-13T01:41:16;2.72;;;0.45;;
22363;SDS011;11349;53.412;-1.328;2023-03-13T01:43:43;2.80;;;0.50;;
22363;SDS011;11349;53.412;-1.328;2023-03-13T01:46:11;1.60;;;0.50;;
22363;SDS011;11349;53.412;-1.328;2023-03-13T01:51:34;1.50;;;0.60;;
22363;SDS011;11349;53.412;-1.328;2023-03-13T01:54:28;0.93;;;0.50;;
22363;SDS011;11349;53.412;-1.328;2023-03-13T01:57:15;0.68;;;0.38;;
22363;SDS011;11349;53.412;-1.328;2023-03-13T02:00:02;0.93;;;0.32;;
22363;SDS011;11349;53.412;-1.328;2023-03-13T02:02:33;1.15;;;0.40;;
22363;SDS011;11349;53.412;-1.328;2023-03-13T02:05:00;1.35;;;0.40;;
22363;SDS011;11349;53.412;-1.328;2023-03-13T02:07:30;0.57;;;0.32;;
22363;SDS011;11349;53.412;-1.328;2023-03-13T02:10:04;1.10;;;0.32;;
22363;SDS011;11349;53.412;-1.328;2023-03-13T02:12:33;0.93;;;0.52;;
22363;SDS011;11349;53.412;-1.328;2023-03-13T02:15:05;1.25;;;0.40;;
22363;SDS011;11349;53.412;-1.328;2023-03-13T02:17:45;0.88;;;0.30;;
22363;SDS011;11349;53.412;-1.328;2023-03-13T02:20:13;1.25;;;0.50;;
22363;SDS011;11349;53.412;-1.328;2023-03-13T02:23:01;1.40;;;0.57;;
22363;SDS011;11349;53.412;-1.328;2023-03-13T02:25:43;1.13;;;0.60;;
22363;SDS011;11349;53.412;-1.328;2023-03-13T02:28:16;1.67;;;0.70;;
22363;SDS011;11349;53.412;-1.328;2023-03-13T02:30:53;1.73;;;0.70;;
22363;SDS011;11349;53.412;-1.328;2023-03-13T02:33:20;1.67;;;0.35;;
22363;SDS011;11349;53.412;-1.328;2023-03-13T02:35:50;0.82;;;0.50;;
22363;SDS011;11349;53.412;-1.328;2023-03-13T02:38:19;1.83;;;0.35;;
22363;SDS011;11349;53.412;-1.328;2023-03-13T02:40:51;0.70;;;0.43;;
22363;SDS011;11349;53.412;-1.328;2023-03-13T02:43:35;1.77;;;0.40;;
22363;SDS011;11349;53.412;-1.328;2023-03-13T02:46:18;1.40;;;0.63;;
22363;SDS011;11349;53.412;-1.328;2023-03-13T02:48:46;0.30;;;0.17;;
22363;SDS011;11349;53.412;-1.328;2023-03-13T02:53:51;0.52;;;0.20;;
22363;SDS011;11349;53.412;-1.328;2023-03-13T02:56:21;1.45;;;0.38;;
22363;SDS011;11349;53.412;-1.328;2023-03-13T02:58:49;1.17;;;0.20;;
22363;SDS011;11349;53.412;-1.328;2023-03-13T03:01:15;1.33;;;0.20;;
22363;SDS011;11349;53.412;-1.328;2023-03-13T03:03:41;0.50;;;0.20;;
22363;SDS011;11349;53.412;-1.328;2023-03-13T03:06:06;0.47;;;0.20;;
22363;SDS011;11349;53.412;-1.328;2023-03-13T03:08:32;1.02;;;0.40;;
22363;SDS011;11349;53.412;-1.328;2023-03-13T03:10:59;1.27;;;0.32;;
22363;SDS011;11349;53.412;-1.328;2023-03-13T03:13:25;3.85;;;0.40;;
22363;SDS011;11349;53.412;-1.328;2023-03-13T03:15:50;1.70;;;0.40;;
22363;SDS011;11349;53.412;-1.328;2023-03-13T03:18:16;0.90;;;0.38;;
22363;SDS011;11349;53.412;-1.328;2023-03-13T03:20:42;2.08;;;0.40;;
22363;SDS011;11349;53.412;-1.328;2023-03-13T03:23:07;1.92;;;0.40;;
22363;SDS011;11349;53.412;-1.328;2023-03-13T03:25:33;1.20;;;0.40;;
22363;SDS011;11349;53.412;-1.328;2023-03-13T03:27:59;0.40;;;0.10;;
22363;SDS011;11349;53.412;-1.328;2023-03-13T03:30:25;2.70;;;0.43;;
22363;SDS011;11349;53.412;-1.328;2023-03-13T03:32:50;0.93;;;0.30;;
22363;SDS011;11349;53.412;-1.328;2023-03-13T03:35:16;0.28;;;0.10;;
22363;SDS011;11349;53.412;-1.328;2023-03-13T03:37:42;0.20;;;0.15;;
22363;SDS011;11349;53.412;-1.328;2023-03-13T03:40:07;1.65;;;0.30;;
22363;SDS011;11349;53.412;-1.328;2023-03-13T03:42:35;0.55;;;0.35;;
22363;SDS011;11349;53.412;-1.328;2023-03-13T03:45:00;1.45;;;0.22;;
22363;SDS011;11349;53.412;-1.328;2023-03-13T03:47:26;1.30;;;0.30;;
22363;SDS011;11349;53.412;-1.328;2023-03-13T03:49:52;0.30;;;0.10;;
22363;SDS011;11349;53.412;-1.328;2023-03-13T03:52:18;0.30;;;0.10;;
22363;SDS011;11349;53.412;-1.328;2023-03-13T03:54:43;1.17;;;0.20;;
22363;SDS011;11349;53.412;-1.328;2023-03-13T03:57:12;0.52;;;0.10;;
22363;SDS011;11349;53.412;-1.328;2023-03-13T03:59:38;0.45;;;0.20;;
22363;SDS011;11349;53.412;-1.328;2023-03-13T04:02:04;0.43;;;0.10;;
22363;SDS011;11349;53.412;-1.328;2023-03-13T04:04:29;0.20;;;0.10;;
22363;SDS011;11349;53.412;-1.328;2023-03-13T04:06:55;1.77;;;0.30;;
22363;SDS011;11349;53.412;-1.328;2023-03-13T04:09:21;0.47;;;0.10;;
22363;SDS011;11349;53.412;-1.328;2023-03-13T04:11:46;0.52;;;0.30;;
22363;SDS011;11349;53.412;-1.328;2023-03-13T04:14:12;1.75;;;0.35;;
22363;SDS011;11349;53.412;-1.328;2023-03-13T04:16:38;1.05;;;0.32;;
22363;SDS011;11349;53.412;-1.328;2023-03-13T04:19:03;1.02;;;0.32;;
22363;SDS011;11349;53.412;-1.328;2023-03-13T04:21:29;2.10;;;0.50;;
22363;SDS011;11349;53.412;-1.328;2023-03-13T04:23:55;2.85;;;0.50;;
22363;SDS011;11349;53.412;-1.328;2023-03-13T04:26:20;6.25;;;1.13;;
22363;SDS011;11349;53.412;-1.328;2023-03-13T04:28:46;2.08;;;0.40;;
22363;SDS011;11349;53.412;-1.328;2023-03-13T04:31:12;2.35;;;0.60;;
22363;SDS011;11349;53.412;-1.328;2023-03-13T04:33:37;3.30;;;0.70;;
22363;SDS011;11349;53.412;-1.328;2023-03-13T04:36:03;4.07;;;0.60;;
22363;SDS011;11349;53.412;-1.328;2023-03-13T04:38:29;2.95;;;0.65;;
22363;SDS011;11349;53.412;-1.328;2023-03-13T04:40:55;3.50;;;0.80;;
22363;SDS011;11349;53.412;-1.328;2023-03-13T04:43:21;2.88;;;0.70;;
22363;SDS011;11349;53.412;-1.328;2023-03-13T04:45:46;5.85;;;0.77;;
22363;SDS011;11349;53.412;-1.328;2023-03-13T04:48:14;4.07;;;0.98;;
22363;SDS011;11349;53.412;-1.328;2023-03-13T04:50:39;5.45;;;1.13;;
22363;SDS011;11349;53.412;-1.328;2023-03-13T04:53:05;4.50;;;1.15;;
22363;SDS011;11349;53.412;-1.328;2023-03-13T04:55:31;4.53;;;1.08;;
22363;SDS011;11349;53.412;-1.328;2023-03-13T04:57:56;4.95;;;1.48;;
22363;SDS011;11349;53.412;-1.328;2023-03-13T05:00:22;5.03;;;1.20;;
22363;SDS011;11349;53.412;-1.328;2023-03-13T05:02:48;6.63;;;1.40;;
22363;SDS011;11349;53.412;-1.328;2023-03-13T05:05:13;7.57;;;1.67;;
22363;SDS011;11349;53.412;-1.328;2023-03-13T05:07:39;6.70;;;1.73;;
22363;SDS011;11349;53.412;-1.328;2023-03-13T05:10:05;6.00;;;1.08;;
22363;SDS011;11349;53.412;-1.328;2023-03-13T05:12:31;6.30;;;1.45;;
22363;SDS011;11349;53.412;-1.328;2023-03-13T05:14:57;3.67;;;1.00;;
22363;SDS011;11349;53.412;-1.328;2023-03-13T05:17:23;7.13;;;1.02;;
22363;SDS011;11349;53.412;-1.328;2023-03-13T05:19:48;8.73;;;2.25;;
22363;SDS011;11349;53.412;-1.328;2023-03-13T05:22:14;9.73;;;3.45;;
22363;SDS011;11349;53.412;-1.328;2023-03-13T05:24:40;7.72;;;1.52;;
22363;SDS011;11349;53.412;-1.328;2023-03-13T05:27:05;8.18;;;1.70;;
22363;SDS011;11349;53.412;-1.328;2023-03-13T05:29:31;8.75;;;1.67;;
22363;SDS011;11349;53.412;-1.328;2023-03-13T05:31:57;5.63;;;2.03;;
22363;SDS011;11349;53.412;-1.328;2023-03-13T05:34:22;7.63;;;1.83;;
22363;SDS011;11349;53.412;-1.328;2023-03-13T05:36:48;7.13;;;1.80;;
22363;SDS011;11349;53.412;-1.328;2023-03-13T05:39:14;8.88;;;2.08;;
22363;SDS011;11349;53.412;-1.328;2023-03-13T05:41:39;12.68;;;2.67;;
22363;SDS011;11349;53.412;-1.328;2023-03-13T05:44:05;8.23;;;1.35;;
22363;SDS011;11349;53.412;-1.328;2023-03-13T05:46:31;9.60;;;1.92;;
22363;SDS011;11349;53.412;-1.328;2023-03-13T05:48:57;10.02;;;2.75;;
22363;SDS011;11349;53.412;-1.328;2023-03-13T05:51:23;12.82;;;2.92;;
22363;SDS011;11349;53.412;-1.328;2023-03-13T05:53:49;10.77;;;2.45;;
22363;SDS011;11349;53.412;-1.328;2023-03-13T05:56:14;10.07;;;2.10;;
22363;SDS011;11349;53.412;-1.328;2023-03-13T05:58:40;13.77;;;2.38;;
22363;SDS011;11349;53.412;-1.328;2023-03-13T06:01:07;8.38;;;2.55;;
22363;SDS011;11349;53.412;-1.328;2023-03-13T06:03:33;11.77;;;2.05;;
22363;SDS011;11349;53.412;-1.328;2023-03-13T06:05:59;8.07;;;2.13;;
22363;SDS011;11349;53.412;-1.328;2023-03-13T06:08:25;10.70;;;2.45;;
22363;SDS011;11349;53.412;-1.328;2023-03-13T06:10:51;9.05;;;2.10;;
22363;SDS011;11349;53.412;-1.328;2023-03-13T06:13:17;9.90;;;2.33;;
22363;SDS011;11349;53.412;-1.328;2023-03-13T06:15:49;9.82;;;1.98;;
22363;SDS011;11349;53.412;-1.328;2023-03-13T06:18:17;10.60;;;2.45;;
22363;SDS011;11349;53.412;-1.328;2023-03-13T06:20:42;10.30;;;2.28;;
22363;SDS011;11349;53.412;-1.328;2023-03-13T06:23:08;10.35;;;1.98;;
22363;SDS011;11349;53.412;-1.328;2023-03-13T06:25:34;11.00;;;2.75;;
22363;SDS011;11349;53.412;-1.328;2023-03-13T06:28:00;10.93;;;2.78;;
22363;SDS011;11349;53.412;-1.328;2023-03-13T06:30:25;14.25;;;2.70;;
22363;SDS011;11349;53.412;-1.328;2023-03-13T06:32:51;11.88;;;2.88;;
22363;SDS011;11349;53.412;-1.328;2023-03-13T06:35:17;14.30;;;2.95;;
22363;SDS011;11349;53.412;-1.328;2023-03-13T06:37:42;15.55;;;3.17;;
22363;SDS011;11349;53.412;-1.328;2023-03-13T06:40:08;14.50;;;2.80;;
22363;SDS011;11349;53.412;-1.328;2023-03-13T06:42:35;10.95;;;2.53;;
22363;SDS011;11349;53.412;-1.328;2023-03-13T06:45:00;16.05;;;3.60;;
22363;SDS011;11349;53.412;-1.328;2023-03-13T06:47:29;10.50;;;3.75;;
22363;SDS011;11349;53.412;-1.328;2023-03-13T06:49:56;17.38;;;3.55;;
22363;SDS011;11349;53.412;-1.328;2023-03-13T06:52:22;10.20;;;2.45;;
22363;SDS011;11349;53.412;-1.328;2023-03-13T06:54:48;11.85;;;2.38;;
22363;SDS011;11349;53.412;-1.328;2023-03-13T06:57:13;7.55;;;1.92;;
22363;SDS011;11349;53.412;-1.328;2023-03-13T06:59:39;8.82;;;2.65;;
22363;SDS011;11349;53.412;-1.328;2023-03-13T07:02:05;6.75;;;1.63;;
22363;SDS011;11349;53.412;-1.328;2023-03-13T07:04:30;5.78;;;1.50;;
22363;SDS011;11349;53.412;-1.328;2023-03-13T07:06:56;7.85;;;1.83;;
22363;SDS011;11349;53.412;-1.328;2023-03-13T07:09:22;10.40;;;2.08;;
22363;SDS011;11349;53.412;-1.328;2023-03-13T07:11:48;10.80;;;2.13;;
22363;SDS011;11349;53.412;-1.328;2023-03-13T07:14:13;8.10;;;2.30;;
22363;SDS011;11349;53.412;-1.328;2023-03-13T07:16:39;10.90;;;2.72;;
22363;SDS011;11349;53.412;-1.328;2023-03-13T07:19:05;10.02;;;2.13;;
22363;SDS011;11349;53.412;-1.328;2023-03-13T07:21:31;12.65;;;2.28;;
22363;SDS011;11349;53.412;-1.328;2023-03-13T07:23:56;10.38;;;2.40;;
22363;SDS011;11349;53.412;-1.328;2023-03-13T07:26:22;10.38;;;3.28;;
22363;SDS011;11349;53.412;-1.328;2023-03-13T07:28:47;13.40;;;3.15;;
22363;SDS011;11349;53.412;-1.328;2023-03-13T07:31:14;13.38;;;2.63;;
22363;SDS011;11349;53.412;-1.328;2023-03-13T07:33:41;12.70;;;2.85;;
22363;SDS011;11349;53.412;-1.328;2023-03-13T07:36:09;14.43;;;3.65;;
22363;SDS011;11349;53.412;-1.328;2023-03-13T07:38:35;10.52;;;3.13;;
22363;SDS011;11349;53.412;-1.328;2023-03-13T07:41:01;12.13;;;3.10;;
22363;SDS011;11349;53.412;-1.328;2023-03-13T07:43:28;15.65;;;3.80;;
22363;SDS011;11349;53.412;-1.328;2023-03-13T07:45:56;12.80;;;3.03;;
22363;SDS011;11349;53.412;-1.328;2023-03-13T07:48:24;11.98;;;4.57;;
22363;SDS011;11349;53.412;-1.328;2023-03-13T07:51:01;10.15;;;3.00;;
22363;SDS011;11349;53.412;-1.328;2023-03-13T07:53:28;9.73;;;2.42;;
22363;SDS011;11349;53.412;-1.328;2023-03-13T07:55:57;8.18;;;2.53;;
22363;SDS011;11349;53.412;-1.328;2023-03-13T07:58:25;8.43;;;2.08;;
22363;SDS011;11349;53.412;-1.328;2023-03-13T08:00:53;8.25;;;2.03;;
22363;SDS011;11349;53.412;-1.328;2023-03-13T08:03:19;6.63;;;1.80;;
22363;SDS011;11349;53.412;-1.328;2023-03-13T08:05:45;8.18;;;1.67;;
22363;SDS011;11349;53.412;-1.328;2023-03-13T08:08:11;7.55;;;2.05;;
22363;SDS011;11349;53.412;-1.328;2023-03-13T08:10:37;7.28;;;1.83;;
22363;SDS011;11349;53.412;-1.328;2023-03-13T08:13:02;8.57;;;1.85;;
22363;SDS011;11349;53.412;-1.328;2023-03-13T08:15:28;9.55;;;2.47;;
22363;SDS011;11349;53.412;-1.328;2023-03-13T08:17:54;9.15;;;2.58;;
22363;SDS011;11349;53.412;-1.328;2023-03-13T08:20:21;7.57;;;2.10;;
22363;SDS011;11349;53.412;-1.328;2023-03-13T08:22:47;8.23;;;2.15;;
22363;SDS011;11349;53.412;-1.328;2023-03-13T08:25:14;8.68;;;2.17;;
22363;SDS011;11349;53.412;-1.328;2023-03-13T08:27:40;8.95;;;2.35;;
22363;SDS011;11349;53.412;-1.328;2023-03-13T08:30:07;7.55;;;1.67;;
22363;SDS011;11349;53.412;-1.328;2023-03-13T08:32:33;8.13;;;2.03;;
22363;SDS011;11349;53.412;-1.328;2023-03-13T08:34:59;8.90;;;2.25;;
22363;SDS011;11349;53.412;-1.328;2023-03-13T08:37:25;8.57;;;2.38;;
22363;SDS011;11349;53.412;-1.328;2023-03-13T08:39:51;8.23;;;3.10;;
22363;SDS011;11349;53.412;-1.328;2023-03-13T08:42:18;10.93;;;2.42;;
22363;SDS011;11349;53.412;-1.328;2023-03-13T08:44:43;5.50;;;1.60;;
22363;SDS011;11349;53.412;-1.328;2023-03-13T08:47:09;5.93;;;1.40;;
22363;SDS011;11349;53.412;-1.328;2023-03-13T08:49:35;7.45;;;2.13;;
22363;SDS011;11349;53.412;-1.328;2023-03-13T08:52:02;7.90;;;1.80;;
22363;SDS011;11349;53.412;-1.328;2023-03-13T08:54:29;7.20;;;2.30;;
22363;SDS011;11349;53.412;-1.328;2023-03-13T08:56:55;8.35;;;2.08;;
22363;SDS011;11349;53.412;-1.328;2023-03-13T08:59:20;7.10;;;1.55;;
22363;SDS011;11349;53.412;-1.328;2023-03-13T09:01:46;7.32;;;2.03;;
22363;SDS011;11349;53.412;-1.328;2023-03-13T09:04:12;4.43;;;1.65;;
22363;SDS011;11349;53.412;-1.328;2023-03-13T09:06:39;5.78;;;1.33;;
22363;SDS011;11349;53.412;-1.328;2023-03-13T09:09:05;4.55;;;0.90;;
22363;SDS011;11349;53.412;-1.328;2023-03-13T09:11:32;5.95;;;1.00;;
22363;SDS011;11349;53.412;-1.328;2023-03-13T09:13:59;2.92;;;0.68;;
22363;SDS011;11349;53.412;-1.328;2023-03-13T09:16:28;2.95;;;0.68;;
22363;SDS011;11349;53.412;-1.328;2023-03-13T09:18:56;2.85;;;0.77;;
22363;SDS011;11349;53.412;-1.328;2023-03-13T09:21:23;2.88;;;0.98;;
22363;SDS011;11349;53.412;-1.328;2023-03-13T09:23:56;3.92;;;0.77;;
22363;SDS011;11349;53.412;-1.328;2023-03-13T09:26:23;3.80;;;0.90;;
22363;SDS011;11349;53.412;-1.328;2023-03-13T09:28:49;1.88;;;0.60;;
22363;SDS011;11349;53.412;-1.328;2023-03-13T09:31:17;3.47;;;0.73;;
22363;SDS011;11349;53.412;-1.328;2023-03-13T09:33:45;3.78;;;0.77;;
22363;SDS011;11349;53.412;-1.328;2023-03-13T09:36:12;3.50;;;0.98;;
22363;SDS011;11349;53.412;-1.328;2023-03-13T09:38:38;3.70;;;0.80;;
22363;SDS011;11349;53.412;-1.328;2023-03-13T09:51:47;7.00;;;1.30;;
22363;SDS011;11349;53.412;-1.328;2023-03-13T09:54:24;4.63;;;1.10;;
22363;SDS011;11349;53.412;-1.328;2023-03-13T09:57:11;5.00;;;1.08;;
22363;SDS011;11349;53.412;-1.328;2023-03-13T09:59:55;5.32;;;0.63;;
22363;SDS011;11349;53.412;-1.328;2023-03-13T10:02:29;3.90;;;0.68;;
22363;SDS011;11349;53.412;-1.328;2023-03-13T10:04:59;3.65;;;0.50;;
22363;SDS011;11349;53.412;-1.328;2023-03-13T10:07:29;1.73;;;0.40;;
22363;SDS011;11349;53.412;-1.328;2023-03-13T10:09:55;2.83;;;0.40;;
22363;SDS011;11349;53.412;-1.328;2023-03-13T10:12:26;1.17;;;0.28;;
22363;SDS011;11349;53.412;-1.328;2023-03-13T10:15:02;1.45;;;0.20;;
22363;SDS011;11349;53.412;-1.328;2023-03-13T10:17:50;2.65;;;0.40;;
22363;SDS011;11349;53.412;-1.328;2023-03-13T10:20:20;1.08;;;0.30;;
22363;SDS011;11349;53.412;-1.328;2023-03-13T10:23:06;3.33;;;0.60;;
22363;SDS011;11349;53.412;-1.328;2023-03-13T10:25:51;1.10;;;0.32;;
22363;SDS011;11349;53.412;-1.328;2023-03-13T10:28:17;2.28;;;0.30;;
22363;SDS011;11349;53.412;-1.328;2023-03-13T10:30:52;0.93;;;0.30;;
22363;SDS011;11349;53.412;-1.328;2023-03-13T10:33:27;0.60;;;0.30;;
22363;SDS011;11349;53.412;-1.328;2023-03-13T10:36:09;1.25;;;0.30;;
22363;SDS011;11349;53.412;-1.328;2023-03-13T10:38:49;0.47;;;0.15;;
22363;SDS011;11349;53.412;-1.328;2023-03-13T10:41:34;1.08;;;0.20;;
22363;SDS011;11349;53.412;-1.328;2023-03-13T10:46:46;1.90;;;0.20;;
22363;SDS011;11349;53.412;-1.328;2023-03-13T10:49:14;0.50;;;0.10;;
22363;SDS011;11349;53.412;-1.328;2023-03-13T10:51:53;0.32;;;0.25;;
22363;SDS011;11349;53.412;-1.328;2023-03-13T10:54:25;0.08;;;0.00;;
22363;SDS011;11349;53.412;-1.328;2023-03-13T10:59:43;1.75;;;0.20;;
22363;SDS011;11349;53.412;-1.328;2023-03-13T11:05:01;1.02;;;0.20;;
22363;SDS011;11349;53.412;-1.328;2023-03-13T11:07:47;1.67;;;0.20;;
22363;SDS011;11349;53.412;-1.328;2023-03-13T11:10:17;0.30;;;0.10;;
22363;SDS011;11349;53.412;-1.328;2023-03-13T11:12:48;0.95;;;0.20;;
22363;SDS011;11349;53.412;-1.328;2023-03-13T11:15:17;1.13;;;0.22;;
22363;SDS011;11349;53.412;-1.328;2023-03-13T11:18:09;1.88;;;0.15;;
22363;SDS011;11349;53.412;-1.328;2023-03-13T11:20:42;1.15;;;0.10;;
22363;SDS011;11349;53.412;-1.328;2023-03-13T11:23:29;1.38;;;0.30;;
22363;SDS011;11349;53.412;-1.328;2023-03-13T11:39:52;0.65;;;0.25;;
22363;SDS011;11349;53.412;-1.328;2023-03-13T11:51:10;1.40;;;0.40;;
22363;SDS011;11349;53.412;-1.328;2023-03-13T12:04:56;4.13;;;0.70;;
22363;SDS011;11349;53.412;-1.328;2023-03-13T12:07:31;1.75;;;0.35;;
22363;SDS011;11349;53.412;-1.328;2023-03-13T12:10:03;3.65;;;0.57;;
22363;SDS011;11349;53.412;-1.328;2023-03-13T12:12:38;2.35;;;0.40;;
22363;SDS011;11349;53.412;-1.328;2023-03-13T12:15:14;3.00;;;0.68;;
22363;SDS011;11349;53.412;-1.328;2023-03-13T12:17:53;2.38;;;0.65;;
22363;SDS011;11349;53.412;-1.328;2023-03-13T12:26:21;2.72;;;0.50;;
22363;SDS011;11349;53.412;-1.328;2023-03-13T12:29:18;1.65;;;0.45;;
22363;SDS011;11349;53.412;-1.328;2023-03-13T12:32:03;1.60;;;0.50;;
22363;SDS011;11349;53.412;-1.328;2023-03-13T12:34:45;2.10;;;0.30;;
22363;SDS011;11349;53.412;-1.328;2023-03-13T12:37:39;1.95;;;0.50;;
22363;SDS011;11349;53.412;-1.328;2023-03-13T12:43:09;3.65;;;0.82;;
22363;SDS011;11349;53.412;-1.328;2023-03-13T12:48:41;2.33;;;0.88;;
22363;SDS011;11349;53.412;-1.328;2023-03-13T12:59:06;4.47;;;1.23;;
22363;SDS011;11349;53.412;-1.328;2023-03-13T13:01:47;3.03;;;1.00;;
22363;SDS011;11349;53.412;-1.328;2023-03-13T13:07:13;7.57;;;1.23;;
22363;SDS011;11349;53.412;-1.328;2023-03-13T13:12:27;7.85;;;2.22;;
22363;SDS011;11349;53.412;-1.328;2023-03-13T13:17:39;8.15;;;2.10;;
22363;SDS011;11349;53.412;-1.328;2023-03-13T13:37:41;5.13;;;1.40;;
22363;SDS011;11349;53.412;-1.328;2023-03-13T13:40:08;7.10;;;1.90;;
22363;SDS011;11349;53.412;-1.328;2023-03-13T13:43:00;5.45;;;1.40;;
22363;SDS011;11349;53.412;-1.328;2023-03-13T13:45:32;7.85;;;1.30;;
22363;SDS011;11349;53.412;-1.328;2023-03-13T13:48:13;4.47;;;1.10;;
22363;SDS011;11349;53.412;-1.328;2023-03-13T13:56:57;4.68;;;1.08;;
22363;SDS011;11349;53.412;-1.328;2023-03-13T14:13:17;7.70;;;1.52;;
22363;SDS011;11349;53.412;-1.328;2023-03-13T14:15:48;7.00;;;1.33;;
22363;SDS011;11349;53.412;-1.328;2023-03-13T14:18:29;6.20;;;1.40;;
22363;SDS011;11349;53.412;-1.328;2023-03-13T14:23:29;5.38;;;1.10;;
22363;SDS011;11349;53.412;-1.328;2023-03-13T14:25:58;4.13;;;1.10;;
22363;SDS011;11349;53.412;-1.328;2023-03-13T14:28:45;6.20;;;1.10;;
22363;SDS011;11349;53.412;-1.328;2023-03-13T14:34:00;2.80;;;0.80;;
22363;SDS011;11349;53.412;-1.328;2023-03-13T14:36:28;4.45;;;0.95;;
22363;SDS011;11349;53.412;-1.328;2023-03-13T14:38:57;4.93;;;1.05;;
22363;SDS011;11349;53.412;-1.328;2023-03-13T14:41:28;5.95;;;1.13;;
22363;SDS011;11349;53.412;-1.328;2023-03-13T14:44:02;4.50;;;1.17;;
22363;SDS011;11349;53.412;-1.328;2023-03-13T14:46:39;6.53;;;1.20;;
22363;SDS011;11349;53.412;-1.328;2023-03-13T14:49:11;3.10;;;1.17;;
22363;SDS011;11349;53.412;-1.328;2023-03-13T14:51:44;6.38;;;1.42;;
22363;SDS011;11349;53.412;-1.328;2023-03-13T14:54:24;7.75;;;2.05;;
22363;SDS011;11349;53.412;-1.328;2023-03-13T14:57:01;3.03;;;0.95;;
22363;SDS011;11349;53.412;-1.328;2023-03-13T14:59:30;4.68;;;1.35;;
22363;SDS011;11349;53.412;-1.328;2023-03-13T15:01:59;5.93;;;1.20;;
22363;SDS011;11349;53.412;-1.328;2023-03-13T15:05:00;5.72;;;1.25;;
22363;SDS011;11349;53.412;-1.328;2023-03-13T15:07:39;8.43;;;1.95;;
22363;SDS011;11349;53.412;-1.328;2023-03-13T15:10:17;4.78;;;1.35;;
22363;SDS011;11349;53.412;-1.328;2023-03-13T15:12:48;6.00;;;1.20;;
22363;SDS011;11349;53.412;-1.328;2023-03-13T15:15:14;6.28;;;1.90;;
22363;SDS011;11349;53.412;-1.328;2023-03-13T15:17:40;5.57;;;1.40;;
22363;SDS011;11349;53.412;-1.328;2023-03-13T15:20:06;4.63;;;1.75;;
22363;SDS011;11349;53.412;-1.328;2023-03-13T15:22:39;4.05;;;1.10;;
22363;SDS011;11349;53.412;-1.328;2023-03-13T15:25:24;5.80;;;1.70;;
22363;SDS011;11349;53.412;-1.328;2023-03-13T15:27:50;5.28;;;0.98;;
22363;SDS011;11349;53.412;-1.328;2023-03-13T15:30:17;3.10;;;0.93;;
22363;SDS011;11349;53.412;-1.328;2023-03-13T15:32:45;5.65;;;1.13;;
22363;SDS011;11349;53.412;-1.328;2023-03-13T15:37:45;3.33;;;0.77;;
22363;SDS011;11349;53.412;-1.328;2023-03-13T15:40:14;6.57;;;0.70;;
22363;SDS011;11349;53.412;-1.328;2023-03-13T15:42:41;6.85;;;1.38;;
22363;SDS011;11349;53.412;-1.328;2023-03-13T15:45:07;3.85;;;1.10;;
22363;SDS011;11349;53.412;-1.328;2023-03-13T15:47:33;3.38;;;0.90;;
22363;SDS011;11349;53.412;-1.328;2023-03-13T15:49:58;4.80;;;1.15;;
22363;SDS011;11349;53.412;-1.328;2023-03-13T15:52:24;5.60;;;1.38;;
22363;SDS011;11349;53.412;-1.328;2023-03-13T15:54:50;2.72;;;0.82;;
22363;SDS011;11349;53.412;-1.328;2023-03-13T15:57:35;6.53;;;1.20;;
22363;SDS011;11349;53.412;-1.328;2023-03-13T16:00:05;6.05;;;1.38;;
22363;SDS011;11349;53.412;-1.328;2023-03-13T16:02:36;10.10;;;1.55;;
22363;SDS011;11349;53.412;-1.328;2023-03-13T16:05:01;6.93;;;1.45;;
22363;SDS011;11349;53.412;-1.328;2023-03-13T16:07:28;4.10;;;0.98;;
22363;SDS011;11349;53.412;-1.328;2023-03-13T16:09:54;6.07;;;1.30;;
22363;SDS011;11349;53.412;-1.328;2023-03-13T16:12:20;7.10;;;1.77;;
22363;SDS011;11349;53.412;-1.328;2023-03-13T16:14:45;6.65;;;2.03;;
22363;SDS011;11349;53.412;-1.328;2023-03-13T16:17:15;9.02;;;1.45;;
22363;SDS011;11349;53.412;-1.328;2023-03-13T16:19:43;7.35;;;2.15;;
22363;SDS011;11349;53.412;-1.328;2023-03-13T16:22:09;7.63;;;1.77;;
22363;SDS011;11349;53.412;-1.328;2023-03-13T16:24:35;8.27;;;1.75;;
22363;SDS011;11349;53.412;-1.328;2023-03-13T16:27:01;6.43;;;2.10;;
22363;SDS011;11349;53.412;-1.328;2023-03-13T16:29:30;7.03;;;1.88;;
22363;SDS011;11349;53.412;-1.328;2023-03-13T16:31:55;7.43;;;2.00;;
22363;SDS011;11349;53.412;-1.328;2023-03-13T16:34:21;8.48;;;2.05;;
22363;SDS011;11349;53.412;-1.328;2023-03-13T16:36:47;7.70;;;1.80;;
22363;SDS011;11349;53.412;-1.328;2023-03-13T16:39:13;11.65;;;2.30;;
22363;SDS011;11349;53.412;-1.328;2023-03-13T16:41:40;6.55;;;2.20;;
22363;SDS011;11349;53.412;-1.328;2023-03-13T16:44:05;10.88;;;2.28;;
22363;SDS011;11349;53.412;-1.328;2023-03-13T16:49:01;9.00;;;2.60;;
22363;SDS011;11349;53.412;-1.328;2023-03-13T16:51:28;8.75;;;2.30;;
22363;SDS011;11349;53.412;-1.328;2023-03-13T16:53:55;13.10;;;3.05;;
22363;SDS011;11349;53.412;-1.328;2023-03-13T16:59:04;8.20;;;2.05;;
22363;SDS011;11349;53.412;-1.328;2023-03-13T17:01:34;10.65;;;2.10;;
22363;SDS011;11349;53.412;-1.328;2023-03-13T17:03:59;11.85;;;2.55;;